ESGG/GOT METAR and TAF weather

Enter ICAO airport designator
Station Type Date Time Source
ESGG METAR 2020/01/22 12:20 UTC NOAA

ESGG 221220Z 34011KT CAVOK 06/M05 Q1027 R21/19//95


Station Type Date Time Source
ESGG Decoded METAR 2020/01/22 12:20 UTC NOAA

Goteborg / Landvetter, Sweden (ESGG) 57-40N 012-18E
Jan 22, 2020 - 07:20 AM EST / 2020.01.22 1220 UTC
Wind: from the NNW (340 degrees) at 13 MPH (11 KT):0
Visibility: greater than 7 mile(s):0
Temperature: 42 F (6 C)
Dew Point: 23 F (-5 C)
Relative Humidity: 45%
Pressure (altimeter): 30.33 in. Hg (1027 hPa)
ob: ESGG 221220Z 34011KT CAVOK 06/M05 Q1027 R21/19//95
cycle: 12

Station Type Date Time Source
ESGG TAF 2020/01/22 12:15 UTC NOAA

TAF TAF ESGG 221130Z 2212/2312 33012KT CAVOK
BECMG 2216/2218 VRB02KT
BECMG 2302/2304 0300 FG VV002
TEMPO 2304/2312 3000 BR BKN005

Example: see airport list